sensor_id;sensor_type;location;lat;lon;timestamp;P1;durP1;ratioP1;P2;durP2;ratioP2
22939;SDS011;11636;52.086;5.090;2022-09-30T00:02:04;6.28;;;4.28;;
22939;SDS011;11636;52.086;5.090;2022-09-30T00:04:38;7.13;;;4.50;;
22939;SDS011;11636;52.086;5.090;2022-09-30T00:07:05;6.53;;;4.07;;
22939;SDS011;11636;52.086;5.090;2022-09-30T00:09:38;5.85;;;3.78;;
22939;SDS011;11636;52.086;5.090;2022-09-30T00:12:11;6.35;;;3.72;;
22939;SDS011;11636;52.086;5.090;2022-09-30T00:14:44;6.90;;;4.57;;
22939;SDS011;11636;52.086;5.090;2022-09-30T00:17:11;6.25;;;4.00;;
22939;SDS011;11636;52.086;5.090;2022-09-30T00:19:46;6.57;;;4.20;;
22939;SDS011;11636;52.086;5.090;2022-09-30T00:22:13;5.85;;;4.00;;
22939;SDS011;11636;52.086;5.090;2022-09-30T00:24:46;6.03;;;3.95;;
22939;SDS011;11636;52.086;5.090;2022-09-30T00:27:13;5.47;;;3.85;;
22939;SDS011;11636;52.086;5.090;2022-09-30T00:29:49;6.28;;;4.20;;
22939;SDS011;11636;52.086;5.090;2022-09-30T00:32:16;6.25;;;3.95;;
22939;SDS011;11636;52.086;5.090;2022-09-30T00:34:49;6.13;;;3.97;;
22939;SDS011;11636;52.086;5.090;2022-09-30T00:37:16;6.97;;;3.90;;
22939;SDS011;11636;52.086;5.090;2022-09-30T00:39:43;6.05;;;4.10;;
22939;SDS011;11636;52.086;5.090;2022-09-30T00:42:16;6.05;;;4.15;;
22939;SDS011;11636;52.086;5.090;2022-09-30T00:53:00;6.55;;;3.90;;
22939;SDS011;11636;52.086;5.090;2022-09-30T00:58:30;6.05;;;3.50;;
22939;SDS011;11636;52.086;5.090;2022-09-30T01:01:02;5.45;;;3.45;;
22939;SDS011;11636;52.086;5.090;2022-09-30T01:03:44;5.85;;;3.83;;
22939;SDS011;11636;52.086;5.090;2022-09-30T01:06:23;5.47;;;3.55;;
22939;SDS011;11636;52.086;5.090;2022-09-30T01:08:56;6.53;;;4.03;;
22939;SDS011;11636;52.086;5.090;2022-09-30T01:11:25;6.63;;;4.10;;
22939;SDS011;11636;52.086;5.090;2022-09-30T01:14:01;5.20;;;3.90;;
22939;SDS011;11636;52.086;5.090;2022-09-30T01:28:45;6.50;;;4.57;;
22939;SDS011;11636;52.086;5.090;2022-09-30T01:31:48;6.10;;;4.75;;
22939;SDS011;11636;52.086;5.090;2022-09-30T01:45:17;7.63;;;5.38;;
22939;SDS011;11636;52.086;5.090;2022-09-30T01:47:47;6.93;;;5.10;;
22939;SDS011;11636;52.086;5.090;2022-09-30T01:56:20;6.60;;;5.68;;
22939;SDS011;11636;52.086;5.090;2022-09-30T02:01:56;6.35;;;5.30;;
22939;SDS011;11636;52.086;5.090;2022-09-30T02:04:30;6.88;;;5.63;;
22939;SDS011;11636;52.086;5.090;2022-09-30T02:07:09;6.70;;;5.53;;
22939;SDS011;11636;52.086;5.090;2022-09-30T02:09:56;6.15;;;4.95;;
22939;SDS011;11636;52.086;5.090;2022-09-30T02:12:33;5.82;;;4.82;;
22939;SDS011;11636;52.086;5.090;2022-09-30T02:15:15;6.63;;;5.40;;
22939;SDS011;11636;52.086;5.090;2022-09-30T02:18:01;6.13;;;5.00;;
22939;SDS011;11636;52.086;5.090;2022-09-30T02:20:54;6.63;;;4.97;;
22939;SDS011;11636;52.086;5.090;2022-09-30T02:23:26;7.47;;;5.82;;
22939;SDS011;11636;52.086;5.090;2022-09-30T02:26:05;7.38;;;6.00;;
22939;SDS011;11636;52.086;5.090;2022-09-30T02:28:50;7.50;;;6.32;;
22939;SDS011;11636;52.086;5.090;2022-09-30T02:31:28;9.00;;;6.63;;
22939;SDS011;11636;52.086;5.090;2022-09-30T02:36:40;6.57;;;5.82;;
22939;SDS011;11636;52.086;5.090;2022-09-30T02:39:30;6.93;;;5.90;;
22939;SDS011;11636;52.086;5.090;2022-09-30T02:42:17;7.78;;;6.30;;
22939;SDS011;11636;52.086;5.090;2022-09-30T02:44:55;7.38;;;5.80;;
22939;SDS011;11636;52.086;5.090;2022-09-30T02:47:29;7.80;;;6.18;;
22939;SDS011;11636;52.086;5.090;2022-09-30T02:52:54;6.88;;;5.57;;
22939;SDS011;11636;52.086;5.090;2022-09-30T02:55:56;7.30;;;5.95;;
22939;SDS011;11636;52.086;5.090;2022-09-30T02:58:52;7.05;;;6.07;;
22939;SDS011;11636;52.086;5.090;2022-09-30T03:01:22;7.10;;;6.35;;
22939;SDS011;11636;52.086;5.090;2022-09-30T03:04:02;7.05;;;5.88;;
22939;SDS011;11636;52.086;5.090;2022-09-30T03:06:33;7.50;;;6.28;;
22939;SDS011;11636;52.086;5.090;2022-09-30T03:09:08;8.23;;;6.15;;
22939;SDS011;11636;52.086;5.090;2022-09-30T03:11:35;7.70;;;6.18;;
22939;SDS011;11636;52.086;5.090;2022-09-30T03:28:10;6.97;;;5.95;;
22939;SDS011;11636;52.086;5.090;2022-09-30T03:33:50;6.70;;;5.60;;
22939;SDS011;11636;52.086;5.090;2022-09-30T03:39:27;7.07;;;5.60;;
22939;SDS011;11636;52.086;5.090;2022-09-30T03:45:17;7.80;;;6.07;;
22939;SDS011;11636;52.086;5.090;2022-09-30T03:47:50;7.35;;;6.25;;
22939;SDS011;11636;52.086;5.090;2022-09-30T03:50:26;8.80;;;6.60;;
22939;SDS011;11636;52.086;5.090;2022-09-30T03:52:54;7.57;;;6.20;;
22939;SDS011;11636;52.086;5.090;2022-09-30T03:55:28;8.38;;;6.82;;
22939;SDS011;11636;52.086;5.090;2022-09-30T03:58:03;8.27;;;7.25;;
22939;SDS011;11636;52.086;5.090;2022-09-30T04:00:36;6.75;;;5.97;;
22939;SDS011;11636;52.086;5.090;2022-09-30T04:03:11;8.60;;;6.85;;
22939;SDS011;11636;52.086;5.090;2022-09-30T04:05:44;8.98;;;7.38;;
22939;SDS011;11636;52.086;5.090;2022-09-30T04:08:19;8.38;;;6.45;;
22939;SDS011;11636;52.086;5.090;2022-09-30T04:10:57;7.13;;;5.72;;
22939;SDS011;11636;52.086;5.090;2022-09-30T04:13:30;7.50;;;6.10;;
22939;SDS011;11636;52.086;5.090;2022-09-30T04:16:04;7.22;;;6.28;;
22939;SDS011;11636;52.086;5.090;2022-09-30T04:18:40;8.43;;;6.85;;
22939;SDS011;11636;52.086;5.090;2022-09-30T04:21:08;7.88;;;6.78;;
22939;SDS011;11636;52.086;5.090;2022-09-30T04:23:36;8.45;;;6.50;;
22939;SDS011;11636;52.086;5.090;2022-09-30T04:26:12;7.50;;;6.00;;
22939;SDS011;11636;52.086;5.090;2022-09-30T04:28:47;7.00;;;5.47;;
22939;SDS011;11636;52.086;5.090;2022-09-30T04:31:14;8.55;;;6.70;;
22939;SDS011;11636;52.086;5.090;2022-09-30T04:33:53;8.25;;;6.72;;
22939;SDS011;11636;52.086;5.090;2022-09-30T04:36:29;7.75;;;6.30;;
22939;SDS011;11636;52.086;5.090;2022-09-30T04:38:55;8.32;;;6.95;;
22939;SDS011;11636;52.086;5.090;2022-09-30T04:41:23;7.78;;;6.35;;
22939;SDS011;11636;52.086;5.090;2022-09-30T04:43:58;8.55;;;6.25;;
22939;SDS011;11636;52.086;5.090;2022-09-30T04:46:34;7.35;;;6.03;;
22939;SDS011;11636;52.086;5.090;2022-09-30T04:49:08;7.10;;;5.72;;
22939;SDS011;11636;52.086;5.090;2022-09-30T04:51:35;6.15;;;5.15;;
22939;SDS011;11636;52.086;5.090;2022-09-30T04:54:10;7.95;;;6.30;;
22939;SDS011;11636;52.086;5.090;2022-09-30T04:56:44;7.82;;;6.22;;
22939;SDS011;11636;52.086;5.090;2022-09-30T04:59:17;7.85;;;5.85;;
22939;SDS011;11636;52.086;5.090;2022-09-30T05:01:50;8.18;;;6.00;;
22939;SDS011;11636;52.086;5.090;2022-09-30T05:04:17;8.40;;;6.20;;
22939;SDS011;11636;52.086;5.090;2022-09-30T05:06:50;9.23;;;6.68;;
22939;SDS011;11636;52.086;5.090;2022-09-30T05:09:23;7.10;;;5.93;;
22939;SDS011;11636;52.086;5.090;2022-09-30T05:11:56;7.63;;;6.05;;
22939;SDS011;11636;52.086;5.090;2022-09-30T05:14:23;7.55;;;6.15;;
22939;SDS011;11636;52.086;5.090;2022-09-30T05:16:56;7.13;;;5.82;;
22939;SDS011;11636;52.086;5.090;2022-09-30T05:19:23;7.13;;;5.78;;
22939;SDS011;11636;52.086;5.090;2022-09-30T05:21:57;9.00;;;6.55;;
22939;SDS011;11636;52.086;5.090;2022-09-30T05:24:24;7.30;;;5.70;;
22939;SDS011;11636;52.086;5.090;2022-09-30T05:26:57;6.53;;;5.45;;
22939;SDS011;11636;52.086;5.090;2022-09-30T05:29:24;7.47;;;6.03;;
22939;SDS011;11636;52.086;5.090;2022-09-30T05:31:57;7.20;;;5.13;;
22939;SDS011;11636;52.086;5.090;2022-09-30T05:34:30;7.72;;;5.47;;
22939;SDS011;11636;52.086;5.090;2022-09-30T05:37:03;8.52;;;5.78;;
22939;SDS011;11636;52.086;5.090;2022-09-30T05:39:38;6.85;;;5.35;;
22939;SDS011;11636;52.086;5.090;2022-09-30T05:42:05;7.50;;;5.75;;
22939;SDS011;11636;52.086;5.090;2022-09-30T05:44:36;8.00;;;5.78;;
22939;SDS011;11636;52.086;5.090;2022-09-30T05:47:09;7.03;;;5.32;;
22939;SDS011;11636;52.086;5.090;2022-09-30T05:49:43;7.50;;;5.60;;
22939;SDS011;11636;52.086;5.090;2022-09-30T05:52:11;7.60;;;5.45;;
22939;SDS011;11636;52.086;5.090;2022-09-30T05:54:41;7.63;;;5.50;;
22939;SDS011;11636;52.086;5.090;2022-09-30T05:57:14;6.40;;;5.10;;
22939;SDS011;11636;52.086;5.090;2022-09-30T05:59:41;7.70;;;5.72;;
22939;SDS011;11636;52.086;5.090;2022-09-30T06:02:15;8.00;;;6.00;;
22939;SDS011;11636;52.086;5.090;2022-09-30T06:04:42;8.80;;;6.78;;
22939;SDS011;11636;52.086;5.090;2022-09-30T06:07:09;8.50;;;6.50;;
22939;SDS011;11636;52.086;5.090;2022-09-30T06:09:42;8.55;;;6.15;;
22939;SDS011;11636;52.086;5.090;2022-09-30T06:12:09;7.85;;;5.97;;
22939;SDS011;11636;52.086;5.090;2022-09-30T06:14:42;8.30;;;5.75;;
22939;SDS011;11636;52.086;5.090;2022-09-30T06:17:15;7.28;;;5.07;;
22939;SDS011;11636;52.086;5.090;2022-09-30T06:19:50;6.57;;;5.40;;
22939;SDS011;11636;52.086;5.090;2022-09-30T06:22:23;7.65;;;5.63;;
22939;SDS011;11636;52.086;5.090;2022-09-30T06:24:50;8.07;;;6.15;;
22939;SDS011;11636;52.086;5.090;2022-09-30T06:27:23;6.65;;;5.40;;
22939;SDS011;11636;52.086;5.090;2022-09-30T06:29:50;7.07;;;5.25;;
22939;SDS011;11636;52.086;5.090;2022-09-30T06:32:23;6.68;;;5.38;;
22939;SDS011;11636;52.086;5.090;2022-09-30T06:34:51;6.85;;;5.65;;
22939;SDS011;11636;52.086;5.090;2022-09-30T06:37:21;7.35;;;5.57;;
22939;SDS011;11636;52.086;5.090;2022-09-30T06:39:54;7.05;;;5.20;;
22939;SDS011;11636;52.086;5.090;2022-09-30T06:42:27;6.43;;;5.60;;
22939;SDS011;11636;52.086;5.090;2022-09-30T06:44:54;8.32;;;6.50;;
22939;SDS011;11636;52.086;5.090;2022-09-30T06:47:28;7.47;;;5.63;;
22939;SDS011;11636;52.086;5.090;2022-09-30T06:50:04;8.88;;;7.57;;
22939;SDS011;11636;52.086;5.090;2022-09-30T06:52:49;6.75;;;5.03;;
22939;SDS011;11636;52.086;5.090;2022-09-30T06:55:17;9.15;;;7.68;;
22939;SDS011;11636;52.086;5.090;2022-09-30T06:57:50;11.60;;;8.65;;
22939;SDS011;11636;52.086;5.090;2022-09-30T07:00:17;8.50;;;6.55;;
22939;SDS011;11636;52.086;5.090;2022-09-30T07:02:52;11.93;;;9.23;;
22939;SDS011;11636;52.086;5.090;2022-09-30T07:05:29;10.20;;;8.80;;
22939;SDS011;11636;52.086;5.090;2022-09-30T07:08:02;11.80;;;8.88;;
22939;SDS011;11636;52.086;5.090;2022-09-30T07:10:29;12.77;;;10.18;;
22939;SDS011;11636;52.086;5.090;2022-09-30T07:13:02;13.18;;;10.73;;
22939;SDS011;11636;52.086;5.090;2022-09-30T07:15:29;11.75;;;9.60;;
22939;SDS011;11636;52.086;5.090;2022-09-30T07:17:55;12.48;;;10.20;;
22939;SDS011;11636;52.086;5.090;2022-09-30T07:20:29;10.35;;;8.35;;
22939;SDS011;11636;52.086;5.090;2022-09-30T07:22:56;11.85;;;10.55;;
22939;SDS011;11636;52.086;5.090;2022-09-30T07:25:24;13.13;;;10.70;;
22939;SDS011;11636;52.086;5.090;2022-09-30T07:27:57;10.93;;;9.40;;
22939;SDS011;11636;52.086;5.090;2022-09-30T07:30:24;11.45;;;9.15;;
22939;SDS011;11636;52.086;5.090;2022-09-30T07:32:57;9.20;;;7.53;;
22939;SDS011;11636;52.086;5.090;2022-09-30T07:35:24;13.85;;;10.85;;
22939;SDS011;11636;52.086;5.090;2022-09-30T07:37:58;12.43;;;10.35;;
22939;SDS011;11636;52.086;5.090;2022-09-30T07:40:26;9.93;;;8.50;;
22939;SDS011;11636;52.086;5.090;2022-09-30T07:43:03;12.95;;;10.18;;
22939;SDS011;11636;52.086;5.090;2022-09-30T07:45:30;10.98;;;9.02;;
22939;SDS011;11636;52.086;5.090;2022-09-30T07:48:04;12.65;;;9.13;;
22939;SDS011;11636;52.086;5.090;2022-09-30T07:50:52;9.23;;;7.65;;
22939;SDS011;11636;52.086;5.090;2022-09-30T07:53:25;11.00;;;8.43;;
22939;SDS011;11636;52.086;5.090;2022-09-30T07:55:52;8.32;;;6.57;;
22939;SDS011;11636;52.086;5.090;2022-09-30T07:58:25;8.63;;;7.40;;
22939;SDS011;11636;52.086;5.090;2022-09-30T08:00:58;9.35;;;7.82;;
22939;SDS011;11636;52.086;5.090;2022-09-30T08:03:25;9.63;;;8.40;;
22939;SDS011;11636;52.086;5.090;2022-09-30T08:06:03;9.68;;;8.15;;
22939;SDS011;11636;52.086;5.090;2022-09-30T08:08:35;10.15;;;7.65;;
22939;SDS011;11636;52.086;5.090;2022-09-30T08:11:10;10.88;;;9.13;;
22939;SDS011;11636;52.086;5.090;2022-09-30T08:13:37;10.50;;;8.55;;
22939;SDS011;11636;52.086;5.090;2022-09-30T08:16:12;9.98;;;8.77;;
22939;SDS011;11636;52.086;5.090;2022-09-30T08:18:39;11.60;;;9.57;;
22939;SDS011;11636;52.086;5.090;2022-09-30T08:21:12;14.27;;;12.00;;
22939;SDS011;11636;52.086;5.090;2022-09-30T08:23:40;12.52;;;10.32;;
22939;SDS011;11636;52.086;5.090;2022-09-30T08:26:13;13.80;;;10.52;;
22939;SDS011;11636;52.086;5.090;2022-09-30T08:28:41;13.25;;;10.50;;
22939;SDS011;11636;52.086;5.090;2022-09-30T08:31:19;13.15;;;11.35;;
22939;SDS011;11636;52.086;5.090;2022-09-30T08:33:49;10.38;;;8.85;;
22939;SDS011;11636;52.086;5.090;2022-09-30T08:36:23;9.13;;;7.93;;
22939;SDS011;11636;52.086;5.090;2022-09-30T08:38:51;7.75;;;6.43;;
22939;SDS011;11636;52.086;5.090;2022-09-30T08:44:48;10.10;;;8.52;;
22939;SDS011;11636;52.086;5.090;2022-09-30T08:47:36;12.88;;;10.98;;
22939;SDS011;11636;52.086;5.090;2022-09-30T08:50:22;11.63;;;9.88;;
22939;SDS011;11636;52.086;5.090;2022-09-30T08:52:58;9.13;;;7.85;;
22939;SDS011;11636;52.086;5.090;2022-09-30T08:55:43;10.97;;;9.00;;
22939;SDS011;11636;52.086;5.090;2022-09-30T08:58:23;10.90;;;8.45;;
22939;SDS011;11636;52.086;5.090;2022-09-30T09:00:58;11.50;;;9.80;;
22939;SDS011;11636;52.086;5.090;2022-09-30T09:03:39;9.18;;;7.53;;
22939;SDS011;11636;52.086;5.090;2022-09-30T09:14:52;10.15;;;8.90;;
22939;SDS011;11636;52.086;5.090;2022-09-30T09:23:42;9.60;;;8.13;;
22939;SDS011;11636;52.086;5.090;2022-09-30T09:26:10;7.65;;;6.32;;
22939;SDS011;11636;52.086;5.090;2022-09-30T09:28:54;9.10;;;6.95;;
22939;SDS011;11636;52.086;5.090;2022-09-30T09:31:38;11.23;;;7.30;;
22939;SDS011;11636;52.086;5.090;2022-09-30T09:34:13;10.35;;;7.55;;
22939;SDS011;11636;52.086;5.090;2022-09-30T09:40:30;6.88;;;5.28;;
22939;SDS011;11636;52.086;5.090;2022-09-30T09:43:17;6.30;;;4.65;;
22939;SDS011;11636;52.086;5.090;2022-09-30T09:48:46;6.70;;;4.35;;
22939;SDS011;11636;52.086;5.090;2022-09-30T09:51:23;4.63;;;3.20;;
22939;SDS011;11636;52.086;5.090;2022-09-30T09:53:59;5.20;;;3.25;;
22939;SDS011;11636;52.086;5.090;2022-09-30T09:56:27;7.32;;;3.55;;
22939;SDS011;11636;52.086;5.090;2022-09-30T09:59:14;5.43;;;3.50;;
22939;SDS011;11636;52.086;5.090;2022-09-30T10:01:50;4.93;;;3.17;;
22939;SDS011;11636;52.086;5.090;2022-09-30T10:04:26;3.70;;;2.50;;
22939;SDS011;11636;52.086;5.090;2022-09-30T10:06:57;5.85;;;2.78;;
22939;SDS011;11636;52.086;5.090;2022-09-30T10:09:38;4.35;;;2.80;;
22939;SDS011;11636;52.086;5.090;2022-09-30T10:22:45;4.93;;;2.67;;
22939;SDS011;11636;52.086;5.090;2022-09-30T10:25:21;3.20;;;2.03;;
22939;SDS011;11636;52.086;5.090;2022-09-30T10:27:53;4.00;;;2.03;;
22939;SDS011;11636;52.086;5.090;2022-09-30T10:30:33;4.10;;;2.22;;
22939;SDS011;11636;52.086;5.090;2022-09-30T10:33:09;4.85;;;2.30;;
22939;SDS011;11636;52.086;5.090;2022-09-30T10:36:04;3.65;;;1.70;;
22939;SDS011;11636;52.086;5.090;2022-09-30T10:38:34;3.08;;;1.65;;
22939;SDS011;11636;52.086;5.090;2022-09-30T10:41:20;3.25;;;1.30;;
22939;SDS011;11636;52.086;5.090;2022-09-30T10:43:52;2.28;;;1.08;;
22939;SDS011;11636;52.086;5.090;2022-09-30T10:46:37;2.85;;;1.33;;
22939;SDS011;11636;52.086;5.090;2022-09-30T10:51:59;3.92;;;1.80;;
22939;SDS011;11636;52.086;5.090;2022-09-30T10:57:23;3.13;;;1.17;;
22939;SDS011;11636;52.086;5.090;2022-09-30T10:59:58;2.00;;;0.98;;
22939;SDS011;11636;52.086;5.090;2022-09-30T11:02:45;4.18;;;1.20;;
22939;SDS011;11636;52.086;5.090;2022-09-30T11:05:21;2.25;;;1.10;;
22939;SDS011;11636;52.086;5.090;2022-09-30T11:13:42;3.70;;;1.77;;
22939;SDS011;11636;52.086;5.090;2022-09-30T11:16:47;6.70;;;2.03;;
22939;SDS011;11636;52.086;5.090;2022-09-30T11:19:36;3.10;;;1.60;;
22939;SDS011;11636;52.086;5.090;2022-09-30T11:24:58;4.47;;;2.55;;
22939;SDS011;11636;52.086;5.090;2022-09-30T11:30:19;5.60;;;2.45;;
22939;SDS011;11636;52.086;5.090;2022-09-30T11:45:08;4.60;;;2.00;;
22939;SDS011;11636;52.086;5.090;2022-09-30T11:56:22;5.57;;;1.90;;
22939;SDS011;11636;52.086;5.090;2022-09-30T11:59:16;3.58;;;1.52;;
22939;SDS011;11636;52.086;5.090;2022-09-30T12:01:50;3.40;;;1.60;;
22939;SDS011;11636;52.086;5.090;2022-09-30T12:04:39;3.22;;;1.50;;
22939;SDS011;11636;52.086;5.090;2022-09-30T12:07:20;5.43;;;1.45;;
22939;SDS011;11636;52.086;5.090;2022-09-30T12:10:02;3.30;;;1.55;;
22939;SDS011;11636;52.086;5.090;2022-09-30T12:12:46;4.53;;;1.58;;
22939;SDS011;11636;52.086;5.090;2022-09-30T12:15:19;3.08;;;1.42;;
22939;SDS011;11636;52.086;5.090;2022-09-30T12:17:57;3.17;;;1.55;;
22939;SDS011;11636;52.086;5.090;2022-09-30T12:20:46;4.32;;;1.40;;
22939;SDS011;11636;52.086;5.090;2022-09-30T12:23:40;4.75;;;1.75;;
22939;SDS011;11636;52.086;5.090;2022-09-30T12:26:17;3.25;;;1.55;;
22939;SDS011;11636;52.086;5.090;2022-09-30T12:28:55;4.45;;;1.85;;
22939;SDS011;11636;52.086;5.090;2022-09-30T12:47:50;7.07;;;3.60;;
22939;SDS011;11636;52.086;5.090;2022-09-30T12:50:39;5.57;;;3.30;;
22939;SDS011;11636;52.086;5.090;2022-09-30T12:56:12;7.10;;;3.45;;
22939;SDS011;11636;52.086;5.090;2022-09-30T12:58:42;6.68;;;3.38;;
22939;SDS011;11636;52.086;5.090;2022-09-30T13:04:38;3.65;;;2.25;;
22939;SDS011;11636;52.086;5.090;2022-09-30T13:19:51;2.97;;;1.45;;
22939;SDS011;11636;52.086;5.090;2022-09-30T13:30:44;3.25;;;1.75;;
22939;SDS011;11636;52.086;5.090;2022-09-30T13:33:29;4.65;;;2.50;;
22939;SDS011;11636;52.086;5.090;2022-09-30T13:36:17;6.25;;;2.47;;
22939;SDS011;11636;52.086;5.090;2022-09-30T13:42:00;5.53;;;2.20;;
22939;SDS011;11636;52.086;5.090;2022-09-30T13:47:44;4.55;;;1.83;;
22939;SDS011;11636;52.086;5.090;2022-09-30T13:50:52;4.10;;;2.03;;
22939;SDS011;11636;52.086;5.090;2022-09-30T13:53:30;4.95;;;2.63;;
22939;SDS011;11636;52.086;5.090;2022-09-30T13:56:21;6.20;;;2.50;;
22939;SDS011;11636;52.086;5.090;2022-09-30T14:19:35;4.63;;;2.53;;
22939;SDS011;11636;52.086;5.090;2022-09-30T14:22:11;5.97;;;3.22;;
22939;SDS011;11636;52.086;5.090;2022-09-30T14:24:40;4.28;;;2.90;;
22939;SDS011;11636;52.086;5.090;2022-09-30T14:30:18;5.00;;;2.90;;
22939;SDS011;11636;52.086;5.090;2022-09-30T14:35:25;6.28;;;3.80;;
22939;SDS011;11636;52.086;5.090;2022-09-30T14:37:58;6.18;;;4.22;;
22939;SDS011;11636;52.086;5.090;2022-09-30T14:40:50;6.00;;;3.80;;
22939;SDS011;11636;52.086;5.090;2022-09-30T14:43:20;8.48;;;3.80;;
22939;SDS011;11636;52.086;5.090;2022-09-30T14:46:22;8.23;;;4.47;;
22939;SDS011;11636;52.086;5.090;2022-09-30T14:49:01;7.55;;;4.60;;
22939;SDS011;11636;52.086;5.090;2022-09-30T14:51:39;6.65;;;5.00;;
22939;SDS011;11636;52.086;5.090;2022-09-30T14:54:19;7.45;;;4.25;;
22939;SDS011;11636;52.086;5.090;2022-09-30T14:56:49;7.38;;;4.38;;
22939;SDS011;11636;52.086;5.090;2022-09-30T14:59:27;8.45;;;3.95;;
22939;SDS011;11636;52.086;5.090;2022-09-30T15:02:17;7.13;;;4.38;;
22939;SDS011;11636;52.086;5.090;2022-09-30T15:05:00;6.57;;;3.72;;
22939;SDS011;11636;52.086;5.090;2022-09-30T15:07:30;6.40;;;3.97;;
22939;SDS011;11636;52.086;5.090;2022-09-30T15:10:03;4.90;;;3.40;;
22939;SDS011;11636;52.086;5.090;2022-09-30T15:12:37;4.78;;;3.30;;
22939;SDS011;11636;52.086;5.090;2022-09-30T15:18:30;5.80;;;3.72;;
22939;SDS011;11636;52.086;5.090;2022-09-30T15:21:03;5.85;;;3.70;;
22939;SDS011;11636;52.086;5.090;2022-09-30T15:23:44;7.60;;;3.40;;
22939;SDS011;11636;52.086;5.090;2022-09-30T15:26:24;7.55;;;3.42;;
22939;SDS011;11636;52.086;5.090;2022-09-30T15:28:52;7.55;;;3.90;;
22939;SDS011;11636;52.086;5.090;2022-09-30T15:31:26;6.28;;;4.20;;
22939;SDS011;11636;52.086;5.090;2022-09-30T15:34:01;7.07;;;4.43;;
22939;SDS011;11636;52.086;5.090;2022-09-30T15:36:37;6.43;;;4.13;;
22939;SDS011;11636;52.086;5.090;2022-09-30T15:39:04;7.07;;;4.38;;
22939;SDS011;11636;52.086;5.090;2022-09-30T15:41:50;7.70;;;4.32;;
22939;SDS011;11636;52.086;5.090;2022-09-30T15:44:35;5.18;;;3.30;;
22939;SDS011;11636;52.086;5.090;2022-09-30T15:47:10;5.43;;;3.30;;
22939;SDS011;11636;52.086;5.090;2022-09-30T15:49:45;7.88;;;3.80;;
22939;SDS011;11636;52.086;5.090;2022-09-30T16:03:54;6.00;;;3.20;;
22939;SDS011;11636;52.086;5.090;2022-09-30T16:06:29;6.82;;;3.63;;
22939;SDS011;11636;52.086;5.090;2022-09-30T16:09:04;5.13;;;2.72;;
22939;SDS011;11636;52.086;5.090;2022-09-30T16:12:04;5.75;;;3.30;;
22939;SDS011;11636;52.086;5.090;2022-09-30T16:17:43;4.93;;;3.33;;
22939;SDS011;11636;52.086;5.090;2022-09-30T16:20:22;4.78;;;2.72;;
22939;SDS011;11636;52.086;5.090;2022-09-30T16:22:51;5.07;;;3.28;;
22939;SDS011;11636;52.086;5.090;2022-09-30T16:25:29;4.97;;;3.10;;
22939;SDS011;11636;52.086;5.090;2022-09-30T16:30:48;4.65;;;2.80;;
22939;SDS011;11636;52.086;5.090;2022-09-30T16:33:26;4.57;;;3.60;;
22939;SDS011;11636;52.086;5.090;2022-09-30T16:35:53;5.28;;;3.40;;
22939;SDS011;11636;52.086;5.090;2022-09-30T16:38:26;4.03;;;2.50;;
22939;SDS011;11636;52.086;5.090;2022-09-30T16:41:00;5.50;;;2.63;;
22939;SDS011;11636;52.086;5.090;2022-09-30T16:43:35;3.25;;;2.15;;
22939;SDS011;11636;52.086;5.090;2022-09-30T16:46:04;3.20;;;2.00;;
22939;SDS011;11636;52.086;5.090;2022-09-30T16:48:38;6.82;;;3.55;;
22939;SDS011;11636;52.086;5.090;2022-09-30T16:51:14;4.95;;;2.80;;
22939;SDS011;11636;52.086;5.090;2022-09-30T16:53:48;4.32;;;2.47;;
22939;SDS011;11636;52.086;5.090;2022-09-30T16:56:16;6.25;;;3.13;;
22939;SDS011;11636;52.086;5.090;2022-09-30T16:58:51;5.95;;;3.35;;
22939;SDS011;11636;52.086;5.090;2022-09-30T17:01:19;5.25;;;2.72;;
22939;SDS011;11636;52.086;5.090;2022-09-30T17:03:56;4.88;;;3.10;;
22939;SDS011;11636;52.086;5.090;2022-09-30T17:06:27;4.25;;;2.40;;
22939;SDS011;11636;52.086;5.090;2022-09-30T17:09:02;5.28;;;3.22;;
22939;SDS011;11636;52.086;5.090;2022-09-30T17:11:36;3.30;;;2.40;;
22939;SDS011;11636;52.086;5.090;2022-09-30T17:14:10;4.13;;;2.50;;
22939;SDS011;11636;52.086;5.090;2022-09-30T17:16:37;3.67;;;2.30;;
22939;SDS011;11636;52.086;5.090;2022-09-30T17:19:10;5.18;;;3.10;;
22939;SDS011;11636;52.086;5.090;2022-09-30T17:21:37;4.72;;;2.83;;
22939;SDS011;11636;52.086;5.090;2022-09-30T17:24:10;4.20;;;2.90;;
22939;SDS011;11636;52.086;5.090;2022-09-30T17:26:37;5.00;;;3.30;;
22939;SDS011;11636;52.086;5.090;2022-09-30T17:29:10;5.20;;;3.42;;
22939;SDS011;11636;52.086;5.090;2022-09-30T17:31:56;4.63;;;3.13;;
22939;SDS011;11636;52.086;5.090;2022-09-30T17:34:30;5.38;;;2.97;;
22939;SDS011;11636;52.086;5.090;2022-09-30T17:37:03;4.88;;;3.30;;
22939;SDS011;11636;52.086;5.090;2022-09-30T17:39:37;5.25;;;3.08;;
22939;SDS011;11636;52.086;5.090;2022-09-30T17:42:05;6.60;;;3.88;;
22939;SDS011;11636;52.086;5.090;2022-09-30T17:44:58;6.40;;;4.07;;
22939;SDS011;11636;52.086;5.090;2022-09-30T17:47:25;6.60;;;4.00;;
22939;SDS011;11636;52.086;5.090;2022-09-30T17:50:04;4.68;;;3.05;;
22939;SDS011;11636;52.086;5.090;2022-09-30T17:52:37;6.10;;;3.35;;
22939;SDS011;11636;52.086;5.090;2022-09-30T17:55:04;5.35;;;3.63;;
22939;SDS011;11636;52.086;5.090;2022-09-30T17:57:33;5.68;;;3.35;;
22939;SDS011;11636;52.086;5.090;2022-09-30T18:00:11;4.75;;;3.10;;
22939;SDS011;11636;52.086;5.090;2022-09-30T18:02:45;5.10;;;3.28;;
22939;SDS011;11636;52.086;5.090;2022-09-30T18:05:13;4.57;;;3.40;;
22939;SDS011;11636;52.086;5.090;2022-09-30T18:07:40;4.10;;;2.90;;
22939;SDS011;11636;52.086;5.090;2022-09-30T18:10:14;5.68;;;3.72;;
22939;SDS011;11636;52.086;5.090;2022-09-30T18:12:48;7.25;;;4.20;;
22939;SDS011;11636;52.086;5.090;2022-09-30T18:15:17;5.80;;;3.20;;
22939;SDS011;11636;52.086;5.090;2022-09-30T18:17:52;6.95;;;3.58;;
22939;SDS011;11636;52.086;5.090;2022-09-30T18:20:19;4.53;;;2.72;;
22939;SDS011;11636;52.086;5.090;2022-09-30T18:22:50;5.03;;;3.30;;
22939;SDS011;11636;52.086;5.090;2022-09-30T18:25:24;5.15;;;2.83;;
22939;SDS011;11636;52.086;5.090;2022-09-30T18:28:00;4.90;;;2.90;;
22939;SDS011;11636;52.086;5.090;2022-09-30T18:30:38;5.32;;;4.00;;
22939;SDS011;11636;52.086;5.090;2022-09-30T18:33:13;4.88;;;3.42;;
22939;SDS011;11636;52.086;5.090;2022-09-30T18:35:48;4.53;;;3.30;;
22939;SDS011;11636;52.086;5.090;2022-09-30T18:38:23;6.15;;;4.00;;
22939;SDS011;11636;52.086;5.090;2022-09-30T18:40:51;6.80;;;3.92;;
22939;SDS011;11636;52.086;5.090;2022-09-30T18:43:18;7.00;;;4.35;;
22939;SDS011;11636;52.086;5.090;2022-09-30T18:45:55;5.65;;;3.78;;
22939;SDS011;11636;52.086;5.090;2022-09-30T18:48:23;6.32;;;3.58;;
22939;SDS011;11636;52.086;5.090;2022-09-30T18:51:01;6.32;;;3.88;;
22939;SDS011;11636;52.086;5.090;2022-09-30T18:53:35;5.25;;;3.20;;
22939;SDS011;11636;52.086;5.090;2022-09-30T18:56:08;6.20;;;3.53;;
22939;SDS011;11636;52.086;5.090;2022-09-30T18:58:42;6.22;;;4.25;;
22939;SDS011;11636;52.086;5.090;2022-09-30T19:01:15;4.88;;;3.28;;
22939;SDS011;11636;52.086;5.090;2022-09-30T19:03:42;5.80;;;3.85;;
22939;SDS011;11636;52.086;5.090;2022-09-30T19:06:09;4.90;;;3.60;;
22939;SDS011;11636;52.086;5.090;2022-09-30T19:08:43;5.10;;;3.30;;
22939;SDS011;11636;52.086;5.090;2022-09-30T19:11:10;5.55;;;3.28;;
22939;SDS011;11636;52.086;5.090;2022-09-30T19:13:46;6.47;;;3.40;;
22939;SDS011;11636;52.086;5.090;2022-09-30T19:16:16;5.22;;;3.67;;
22939;SDS011;11636;52.086;5.090;2022-09-30T19:18:50;7.30;;;3.80;;
22939;SDS011;11636;52.086;5.090;2022-09-30T19:21:18;6.13;;;3.60;;
22939;SDS011;11636;52.086;5.090;2022-09-30T19:23:53;4.75;;;3.53;;
22939;SDS011;11636;52.086;5.090;2022-09-30T19:26:23;4.45;;;3.00;;
22939;SDS011;11636;52.086;5.090;2022-09-30T19:29:01;5.30;;;3.53;;
22939;SDS011;11636;52.086;5.090;2022-09-30T19:31:28;5.07;;;3.28;;
22939;SDS011;11636;52.086;5.090;2022-09-30T19:34:02;4.93;;;3.38;;